sensor_id;sensor_type;location;lat;lon;timestamp;P1;durP1;ratioP1;P2;durP2;ratioP2
3000;SDS011;1510;51.072;6.678;2023-08-01T00:00:16;1009.63;;;914.03;;
3000;SDS011;1510;51.072;6.678;2023-08-01T00:02:43;1003.33;;;907.73;;
3000;SDS011;1510;51.072;6.678;2023-08-01T00:05:11;1003.03;;;908.37;;
3000;SDS011;1510;51.072;6.678;2023-08-01T00:07:38;992.87;;;899.07;;
3000;SDS011;1510;51.072;6.678;2023-08-01T00:10:05;982.40;;;889.87;;
3000;SDS011;1510;51.072;6.678;2023-08-01T00:12:32;982.23;;;890.07;;
3000;SDS011;1510;51.072;6.678;2023-08-01T00:14:58;974.77;;;883.13;;
3000;SDS011;1510;51.072;6.678;2023-08-01T00:17:25;983.57;;;892.60;;
3000;SDS011;1510;51.072;6.678;2023-08-01T00:19:52;986.07;;;895.43;;
3000;SDS011;1510;51.072;6.678;2023-08-01T00:22:21;1164.97;;;999.90;;
3000;SDS011;1510;51.072;6.678;2023-08-01T00:24:48;1108.10;;;999.90;;
3000;SDS011;1510;51.072;6.678;2023-08-01T00:27:15;1085.17;;;987.27;;
3000;SDS011;1510;51.072;6.678;2023-08-01T00:29:42;1166.57;;;999.90;;
3000;SDS011;1510;51.072;6.678;2023-08-01T00:32:08;1106.40;;;999.90;;
3000;SDS011;1510;51.072;6.678;2023-08-01T00:34:35;1098.17;;;997.53;;
3000;SDS011;1510;51.072;6.678;2023-08-01T00:37:02;1113.73;;;999.90;;
3000;SDS011;1510;51.072;6.678;2023-08-01T00:39:31;1126.60;;;999.90;;
3000;SDS011;1510;51.072;6.678;2023-08-01T00:41:58;1108.00;;;999.90;;
3000;SDS011;1510;51.072;6.678;2023-08-01T00:44:25;1114.77;;;999.90;;
3000;SDS011;1510;51.072;6.678;2023-08-01T00:46:52;1110.67;;;999.90;;
3000;SDS011;1510;51.072;6.678;2023-08-01T00:49:18;1126.03;;;999.90;;
3000;SDS011;1510;51.072;6.678;2023-08-01T00:51:46;1080.50;;;978.40;;
3000;SDS011;1510;51.072;6.678;2023-08-01T00:54:13;1105.47;;;999.90;;
3000;SDS011;1510;51.072;6.678;2023-08-01T00:56:42;1185.73;;;999.90;;
3000;SDS011;1510;51.072;6.678;2023-08-01T00:59:09;1163.17;;;999.90;;
3000;SDS011;1510;51.072;6.678;2023-08-01T01:01:37;1154.80;;;999.90;;
3000;SDS011;1510;51.072;6.678;2023-08-01T01:04:04;1122.47;;;999.90;;
3000;SDS011;1510;51.072;6.678;2023-08-01T01:06:31;1067.33;;;966.17;;
3000;SDS011;1510;51.072;6.678;2023-08-01T01:09:00;1072.07;;;971.87;;
3000;SDS011;1510;51.072;6.678;2023-08-01T01:11:30;1098.30;;;998.00;;
3000;SDS011;1510;51.072;6.678;2023-08-01T01:13:58;1121.80;;;999.90;;
3000;SDS011;1510;51.072;6.678;2023-08-01T01:16:25;1066.77;;;969.50;;
3000;SDS011;1510;51.072;6.678;2023-08-01T01:18:51;1091.53;;;995.53;;
3000;SDS011;1510;51.072;6.678;2023-08-01T01:21:20;1088.90;;;991.50;;
3000;SDS011;1510;51.072;6.678;2023-08-01T01:23:46;1067.87;;;971.17;;
3000;SDS011;1510;51.072;6.678;2023-08-01T01:26:15;1042.10;;;945.47;;
3000;SDS011;1510;51.072;6.678;2023-08-01T01:28:45;1043.70;;;946.30;;
3000;SDS011;1510;51.072;6.678;2023-08-01T01:31:14;1021.00;;;924.87;;
3000;SDS011;1510;51.072;6.678;2023-08-01T01:33:41;1029.50;;;933.17;;
3000;SDS011;1510;51.072;6.678;2023-08-01T01:36:09;1038.87;;;942.37;;
3000;SDS011;1510;51.072;6.678;2023-08-01T01:38:37;1040.53;;;944.77;;
3000;SDS011;1510;51.072;6.678;2023-08-01T01:41:04;1043.60;;;947.80;;
3000;SDS011;1510;51.072;6.678;2023-08-01T01:43:31;1129.07;;;999.90;;
3000;SDS011;1510;51.072;6.678;2023-08-01T01:45:58;1039.27;;;943.97;;
3000;SDS011;1510;51.072;6.678;2023-08-01T01:48:24;1017.40;;;922.93;;
3000;SDS011;1510;51.072;6.678;2023-08-01T01:50:51;1019.30;;;924.83;;
3000;SDS011;1510;51.072;6.678;2023-08-01T01:53:18;1013.47;;;919.67;;
3000;SDS011;1510;51.072;6.678;2023-08-01T01:55:46;975.30;;;887.23;;
3000;SDS011;1510;51.072;6.678;2023-08-01T01:58:13;989.87;;;901.00;;
3000;SDS011;1510;51.072;6.678;2023-08-01T02:00:40;1033.77;;;944.13;;
3000;SDS011;1510;51.072;6.678;2023-08-01T02:03:07;1028.40;;;941.27;;
3000;SDS011;1510;51.072;6.678;2023-08-01T02:05:35;999.47;;;912.07;;
3000;SDS011;1510;51.072;6.678;2023-08-01T02:08:02;965.70;;;880.10;;
3000;SDS011;1510;51.072;6.678;2023-08-01T02:10:29;957.90;;;873.10;;
3000;SDS011;1510;51.072;6.678;2023-08-01T02:12:58;960.07;;;873.77;;
3000;SDS011;1510;51.072;6.678;2023-08-01T02:15:25;964.90;;;879.23;;
3000;SDS011;1510;51.072;6.678;2023-08-01T02:17:52;966.73;;;880.93;;
3000;SDS011;1510;51.072;6.678;2023-08-01T02:20:19;969.90;;;883.90;;
3000;SDS011;1510;51.072;6.678;2023-08-01T02:22:46;961.00;;;876.30;;
3000;SDS011;1510;51.072;6.678;2023-08-01T02:25:13;966.00;;;879.77;;
3000;SDS011;1510;51.072;6.678;2023-08-01T02:27:40;962.63;;;877.90;;
3000;SDS011;1510;51.072;6.678;2023-08-01T02:30:08;960.93;;;874.90;;
3000;SDS011;1510;51.072;6.678;2023-08-01T02:32:36;961.97;;;875.77;;
3000;SDS011;1510;51.072;6.678;2023-08-01T02:35:03;955.90;;;872.50;;
3000;SDS011;1510;51.072;6.678;2023-08-01T02:37:31;946.10;;;865.00;;
3000;SDS011;1510;51.072;6.678;2023-08-01T02:39:58;942.47;;;860.57;;
3000;SDS011;1510;51.072;6.678;2023-08-01T02:42:24;944.27;;;862.60;;
3000;SDS011;1510;51.072;6.678;2023-08-01T02:44:51;932.67;;;853.90;;
3000;SDS011;1510;51.072;6.678;2023-08-01T02:47:19;936.07;;;855.60;;
3000;SDS011;1510;51.072;6.678;2023-08-01T02:49:46;944.37;;;863.67;;
3000;SDS011;1510;51.072;6.678;2023-08-01T02:52:13;947.30;;;865.80;;
3000;SDS011;1510;51.072;6.678;2023-08-01T02:54:40;920.37;;;845.10;;
3000;SDS011;1510;51.072;6.678;2023-08-01T02:57:07;922.43;;;846.00;;
3000;SDS011;1510;51.072;6.678;2023-08-01T02:59:34;911.27;;;835.73;;
3000;SDS011;1510;51.072;6.678;2023-08-01T03:02:00;914.60;;;837.87;;
3000;SDS011;1510;51.072;6.678;2023-08-01T03:04:29;913.17;;;835.67;;
3000;SDS011;1510;51.072;6.678;2023-08-01T03:06:56;905.30;;;830.00;;
3000;SDS011;1510;51.072;6.678;2023-08-01T03:09:22;885.63;;;815.90;;
3000;SDS011;1510;51.072;6.678;2023-08-01T03:11:49;885.47;;;815.93;;
3000;SDS011;1510;51.072;6.678;2023-08-01T03:14:16;877.03;;;811.90;;
3000;SDS011;1510;51.072;6.678;2023-08-01T03:16:43;877.80;;;813.70;;
3000;SDS011;1510;51.072;6.678;2023-08-01T03:19:10;887.27;;;821.90;;
3000;SDS011;1510;51.072;6.678;2023-08-01T03:21:38;877.80;;;812.53;;
3000;SDS011;1510;51.072;6.678;2023-08-01T03:24:05;885.03;;;818.90;;
3000;SDS011;1510;51.072;6.678;2023-08-01T03:26:33;886.00;;;822.23;;
3000;SDS011;1510;51.072;6.678;2023-08-01T03:29:00;880.83;;;817.20;;
3000;SDS011;1510;51.072;6.678;2023-08-01T03:31:28;880.37;;;819.47;;
3000;SDS011;1510;51.072;6.678;2023-08-01T03:33:55;882.17;;;819.50;;
3000;SDS011;1510;51.072;6.678;2023-08-01T03:36:23;874.20;;;813.90;;
3000;SDS011;1510;51.072;6.678;2023-08-01T03:38:52;877.60;;;815.00;;
3000;SDS011;1510;51.072;6.678;2023-08-01T03:41:18;879.83;;;816.50;;
3000;SDS011;1510;51.072;6.678;2023-08-01T03:43:45;886.97;;;822.97;;
3000;SDS011;1510;51.072;6.678;2023-08-01T03:46:12;894.50;;;828.53;;
3000;SDS011;1510;51.072;6.678;2023-08-01T03:48:39;889.50;;;822.70;;
3000;SDS011;1510;51.072;6.678;2023-08-01T03:51:06;882.07;;;817.17;;
3000;SDS011;1510;51.072;6.678;2023-08-01T03:53:33;885.53;;;820.40;;
3000;SDS011;1510;51.072;6.678;2023-08-01T03:56:01;877.53;;;814.03;;
3000;SDS011;1510;51.072;6.678;2023-08-01T03:58:28;880.17;;;815.13;;
3000;SDS011;1510;51.072;6.678;2023-08-01T04:00:55;901.30;;;834.73;;
3000;SDS011;1510;51.072;6.678;2023-08-01T04:03:22;890.40;;;823.13;;
3000;SDS011;1510;51.072;6.678;2023-08-01T04:05:48;896.03;;;828.30;;
3000;SDS011;1510;51.072;6.678;2023-08-01T04:08:15;891.50;;;825.40;;
3000;SDS011;1510;51.072;6.678;2023-08-01T04:10:42;898.37;;;830.80;;
3000;SDS011;1510;51.072;6.678;2023-08-01T04:13:10;892.03;;;824.03;;
3000;SDS011;1510;51.072;6.678;2023-08-01T04:15:37;902.07;;;832.60;;
3000;SDS011;1510;51.072;6.678;2023-08-01T04:18:04;894.43;;;825.90;;
3000;SDS011;1510;51.072;6.678;2023-08-01T04:20:31;891.50;;;823.70;;
3000;SDS011;1510;51.072;6.678;2023-08-01T04:22:58;896.07;;;826.60;;
3000;SDS011;1510;51.072;6.678;2023-08-01T04:25:25;895.43;;;825.87;;
3000;SDS011;1510;51.072;6.678;2023-08-01T04:27:53;911.73;;;840.13;;
3000;SDS011;1510;51.072;6.678;2023-08-01T04:30:21;902.10;;;831.50;;
3000;SDS011;1510;51.072;6.678;2023-08-01T04:32:48;898.27;;;828.67;;
3000;SDS011;1510;51.072;6.678;2023-08-01T04:35:15;899.93;;;830.67;;
3000;SDS011;1510;51.072;6.678;2023-08-01T04:37:42;897.57;;;828.60;;
3000;SDS011;1510;51.072;6.678;2023-08-01T04:40:09;899.37;;;830.67;;
3000;SDS011;1510;51.072;6.678;2023-08-01T04:42:37;896.03;;;829.07;;
3000;SDS011;1510;51.072;6.678;2023-08-01T04:45:04;889.37;;;825.50;;
3000;SDS011;1510;51.072;6.678;2023-08-01T04:47:34;878.67;;;817.27;;
3000;SDS011;1510;51.072;6.678;2023-08-01T04:50:01;854.33;;;797.17;;
3000;SDS011;1510;51.072;6.678;2023-08-01T04:52:28;873.83;;;815.83;;
3000;SDS011;1510;51.072;6.678;2023-08-01T04:54:55;860.77;;;803.93;;
3000;SDS011;1510;51.072;6.678;2023-08-01T04:57:22;841.97;;;788.07;;
3000;SDS011;1510;51.072;6.678;2023-08-01T04:59:48;837.57;;;784.87;;
3000;SDS011;1510;51.072;6.678;2023-08-01T05:02:15;854.37;;;799.13;;
3000;SDS011;1510;51.072;6.678;2023-08-01T05:04:43;860.00;;;804.77;;
3000;SDS011;1510;51.072;6.678;2023-08-01T05:07:10;858.77;;;803.53;;
3000;SDS011;1510;51.072;6.678;2023-08-01T05:09:37;864.83;;;808.77;;
3000;SDS011;1510;51.072;6.678;2023-08-01T05:12:04;879.67;;;822.10;;
3000;SDS011;1510;51.072;6.678;2023-08-01T05:14:32;857.80;;;802.17;;
3000;SDS011;1510;51.072;6.678;2023-08-01T05:16:59;853.63;;;799.93;;
3000;SDS011;1510;51.072;6.678;2023-08-01T05:19:25;837.57;;;784.93;;
3000;SDS011;1510;51.072;6.678;2023-08-01T05:21:54;828.20;;;776.97;;
3000;SDS011;1510;51.072;6.678;2023-08-01T05:24:21;819.33;;;769.67;;
3000;SDS011;1510;51.072;6.678;2023-08-01T05:26:48;784.13;;;737.43;;
3000;SDS011;1510;51.072;6.678;2023-08-01T05:29:15;756.57;;;713.10;;
3000;SDS011;1510;51.072;6.678;2023-08-01T05:31:41;731.20;;;691.10;;
3000;SDS011;1510;51.072;6.678;2023-08-01T05:34:08;724.63;;;685.53;;
3000;SDS011;1510;51.072;6.678;2023-08-01T05:36:35;655.87;;;622.57;;
3000;SDS011;1510;51.072;6.678;2023-08-01T05:39:04;557.60;;;531.20;;
3000;SDS011;1510;51.072;6.678;2023-08-01T05:41:31;660.17;;;627.80;;
3000;SDS011;1510;51.072;6.678;2023-08-01T05:43:58;671.33;;;638.33;;
3000;SDS011;1510;51.072;6.678;2023-08-01T05:46:25;670.87;;;637.97;;
3000;SDS011;1510;51.072;6.678;2023-08-01T05:48:52;593.00;;;565.00;;
3000;SDS011;1510;51.072;6.678;2023-08-01T05:51:19;604.13;;;575.57;;
3000;SDS011;1510;51.072;6.678;2023-08-01T05:53:46;621.30;;;591.57;;
3000;SDS011;1510;51.072;6.678;2023-08-01T05:56:14;612.23;;;582.93;;
3000;SDS011;1510;51.072;6.678;2023-08-01T05:58:41;565.50;;;539.20;;
3000;SDS011;1510;51.072;6.678;2023-08-01T06:01:09;482.87;;;461.90;;
3000;SDS011;1510;51.072;6.678;2023-08-01T06:03:37;384.07;;;368.47;;
3000;SDS011;1510;51.072;6.678;2023-08-01T06:06:04;414.53;;;397.60;;
3000;SDS011;1510;51.072;6.678;2023-08-01T06:08:30;384.87;;;368.30;;
3000;SDS011;1510;51.072;6.678;2023-08-01T06:10:57;458.37;;;439.23;;
3000;SDS011;1510;51.072;6.678;2023-08-01T06:13:26;485.10;;;464.23;;
3000;SDS011;1510;51.072;6.678;2023-08-01T06:15:53;506.77;;;484.67;;
3000;SDS011;1510;51.072;6.678;2023-08-01T06:18:19;419.83;;;402.43;;
3000;SDS011;1510;51.072;6.678;2023-08-01T06:20:47;386.40;;;370.13;;
3000;SDS011;1510;51.072;6.678;2023-08-01T06:23:14;372.30;;;357.53;;
3000;SDS011;1510;51.072;6.678;2023-08-01T06:25:41;335.90;;;323.00;;
3000;SDS011;1510;51.072;6.678;2023-08-01T06:28:08;192.97;;;185.80;;
3000;SDS011;1510;51.072;6.678;2023-08-01T06:30:36;60.00;;;56.13;;
3000;SDS011;1510;51.072;6.678;2023-08-01T06:33:03;101.37;;;96.93;;
3000;SDS011;1510;51.072;6.678;2023-08-01T06:35:30;50.40;;;47.87;;
3000;SDS011;1510;51.072;6.678;2023-08-01T06:37:57;31.77;;;29.77;;
3000;SDS011;1510;51.072;6.678;2023-08-01T06:40:23;23.53;;;21.83;;
3000;SDS011;1510;51.072;6.678;2023-08-01T06:42:50;21.23;;;19.67;;
3000;SDS011;1510;51.072;6.678;2023-08-01T06:45:17;19.47;;;17.97;;
3000;SDS011;1510;51.072;6.678;2023-08-01T06:47:45;22.10;;;20.40;;
3000;SDS011;1510;51.072;6.678;2023-08-01T06:50:13;29.23;;;27.33;;
3000;SDS011;1510;51.072;6.678;2023-08-01T06:52:40;16.73;;;14.40;;
3000;SDS011;1510;51.072;6.678;2023-08-01T06:55:06;17.67;;;11.93;;
3000;SDS011;1510;51.072;6.678;2023-08-01T06:57:34;14.70;;;10.27;;
3000;SDS011;1510;51.072;6.678;2023-08-01T07:00:00;14.70;;;10.43;;
3000;SDS011;1510;51.072;6.678;2023-08-01T07:02:27;13.40;;;7.93;;
3000;SDS011;1510;51.072;6.678;2023-08-01T07:04:56;11.10;;;6.47;;
3000;SDS011;1510;51.072;6.678;2023-08-01T07:07:22;13.70;;;7.93;;
3000;SDS011;1510;51.072;6.678;2023-08-01T07:09:49;9.60;;;5.77;;
3000;SDS011;1510;51.072;6.678;2023-08-01T07:12:16;11.67;;;6.53;;
3000;SDS011;1510;51.072;6.678;2023-08-01T07:14:43;11.83;;;6.60;;
3000;SDS011;1510;51.072;6.678;2023-08-01T07:17:10;15.23;;;6.80;;
3000;SDS011;1510;51.072;6.678;2023-08-01T07:19:37;15.63;;;6.20;;
3000;SDS011;1510;51.072;6.678;2023-08-01T07:22:05;11.07;;;6.17;;
3000;SDS011;1510;51.072;6.678;2023-08-01T07:24:32;15.03;;;6.60;;
3000;SDS011;1510;51.072;6.678;2023-08-01T07:26:59;12.80;;;6.57;;
3000;SDS011;1510;51.072;6.678;2023-08-01T07:29:26;12.53;;;6.10;;
3000;SDS011;1510;51.072;6.678;2023-08-01T07:31:52;13.30;;;6.60;;
3000;SDS011;1510;51.072;6.678;2023-08-01T07:34:19;12.57;;;7.40;;
3000;SDS011;1510;51.072;6.678;2023-08-01T07:36:47;12.37;;;5.63;;
3000;SDS011;1510;51.072;6.678;2023-08-01T07:39:15;9.97;;;6.13;;
3000;SDS011;1510;51.072;6.678;2023-08-01T07:41:43;9.87;;;5.73;;
3000;SDS011;1510;51.072;6.678;2023-08-01T07:44:09;11.10;;;6.20;;
3000;SDS011;1510;51.072;6.678;2023-08-01T07:46:36;15.17;;;6.20;;
3000;SDS011;1510;51.072;6.678;2023-08-01T07:49:03;11.23;;;5.50;;
3000;SDS011;1510;51.072;6.678;2023-08-01T07:51:30;13.37;;;5.20;;
3000;SDS011;1510;51.072;6.678;2023-08-01T07:53:59;10.00;;;5.60;;
3000;SDS011;1510;51.072;6.678;2023-08-01T07:56:27;9.70;;;5.37;;
3000;SDS011;1510;51.072;6.678;2023-08-01T07:58:54;13.33;;;5.80;;
3000;SDS011;1510;51.072;6.678;2023-08-01T08:01:21;8.43;;;4.53;;
3000;SDS011;1510;51.072;6.678;2023-08-01T08:03:48;8.57;;;5.13;;
3000;SDS011;1510;51.072;6.678;2023-08-01T08:06:15;11.50;;;6.13;;
3000;SDS011;1510;51.072;6.678;2023-08-01T08:08:42;13.87;;;6.17;;
3000;SDS011;1510;51.072;6.678;2023-08-01T08:11:09;9.37;;;5.07;;
3000;SDS011;1510;51.072;6.678;2023-08-01T08:13:37;11.77;;;5.97;;
3000;SDS011;1510;51.072;6.678;2023-08-01T08:16:04;14.30;;;5.67;;
3000;SDS011;1510;51.072;6.678;2023-08-01T08:18:31;13.20;;;5.30;;
3000;SDS011;1510;51.072;6.678;2023-08-01T08:20:58;11.60;;;5.43;;
3000;SDS011;1510;51.072;6.678;2023-08-01T08:23:25;11.80;;;6.20;;
3000;SDS011;1510;51.072;6.678;2023-08-01T08:25:52;14.10;;;5.50;;
3000;SDS011;1510;51.072;6.678;2023-08-01T08:28:27;11.60;;;5.57;;
3000;SDS011;1510;51.072;6.678;2023-08-01T08:30:57;9.33;;;5.10;;
3000;SDS011;1510;51.072;6.678;2023-08-01T08:33:24;12.80;;;5.70;;
3000;SDS011;1510;51.072;6.678;2023-08-01T08:35:51;11.50;;;4.80;;
3000;SDS011;1510;51.072;6.678;2023-08-01T08:38:21;9.20;;;4.40;;
3000;SDS011;1510;51.072;6.678;2023-08-01T08:40:52;12.60;;;5.20;;
3000;SDS011;1510;51.072;6.678;2023-08-01T08:43:34;11.03;;;4.03;;
3000;SDS011;1510;51.072;6.678;2023-08-01T08:46:02;12.73;;;4.03;;
3000;SDS011;1510;51.072;6.678;2023-08-01T08:48:30;6.53;;;3.87;;
3000;SDS011;1510;51.072;6.678;2023-08-01T08:50:59;14.80;;;4.60;;
3000;SDS011;1510;51.072;6.678;2023-08-01T08:53:27;11.63;;;5.00;;
3000;SDS011;1510;51.072;6.678;2023-08-01T08:55:54;11.63;;;4.43;;
3000;SDS011;1510;51.072;6.678;2023-08-01T08:58:21;7.40;;;3.70;;
3000;SDS011;1510;51.072;6.678;2023-08-01T09:00:49;7.83;;;4.17;;
3000;SDS011;1510;51.072;6.678;2023-08-01T09:03:17;9.53;;;4.80;;
3000;SDS011;1510;51.072;6.678;2023-08-01T09:05:45;10.57;;;5.00;;
3000;SDS011;1510;51.072;6.678;2023-08-01T09:08:16;7.70;;;3.60;;
3000;SDS011;1510;51.072;6.678;2023-08-01T09:10:45;12.60;;;4.63;;
3000;SDS011;1510;51.072;6.678;2023-08-01T09:13:13;10.43;;;5.27;;
3000;SDS011;1510;51.072;6.678;2023-08-01T09:15:40;13.03;;;5.20;;
3000;SDS011;1510;51.072;6.678;2023-08-01T09:18:08;10.20;;;4.47;;
3000;SDS011;1510;51.072;6.678;2023-08-01T09:20:45;9.30;;;3.53;;
3000;SDS011;1510;51.072;6.678;2023-08-01T09:23:13;9.80;;;4.00;;
3000;SDS011;1510;51.072;6.678;2023-08-01T09:25:41;10.73;;;4.37;;
3000;SDS011;1510;51.072;6.678;2023-08-01T09:28:14;12.83;;;5.20;;
3000;SDS011;1510;51.072;6.678;2023-08-01T09:30:46;15.20;;;4.03;;
3000;SDS011;1510;51.072;6.678;2023-08-01T09:33:13;10.43;;;4.20;;
3000;SDS011;1510;51.072;6.678;2023-08-01T09:35:40;8.50;;;4.57;;
3000;SDS011;1510;51.072;6.678;2023-08-01T09:38:10;8.63;;;3.80;;
3000;SDS011;1510;51.072;6.678;2023-08-01T09:40:39;9.20;;;3.40;;
3000;SDS011;1510;51.072;6.678;2023-08-01T09:43:06;9.03;;;3.67;;
3000;SDS011;1510;51.072;6.678;2023-08-01T09:45:34;7.57;;;4.37;;
3000;SDS011;1510;51.072;6.678;2023-08-01T09:48:01;8.30;;;4.13;;
3000;SDS011;1510;51.072;6.678;2023-08-01T09:50:28;7.33;;;3.43;;
3000;SDS011;1510;51.072;6.678;2023-08-01T09:52:55;8.73;;;3.80;;
3000;SDS011;1510;51.072;6.678;2023-08-01T09:55:25;7.63;;;3.50;;
3000;SDS011;1510;51.072;6.678;2023-08-01T09:57:57;9.47;;;3.20;;
3000;SDS011;1510;51.072;6.678;2023-08-01T10:00:25;8.17;;;4.20;;
3000;SDS011;1510;51.072;6.678;2023-08-01T10:02:52;8.53;;;3.37;;
3000;SDS011;1510;51.072;6.678;2023-08-01T10:05:21;7.40;;;3.40;;
3000;SDS011;1510;51.072;6.678;2023-08-01T10:07:49;12.50;;;4.00;;
3000;SDS011;1510;51.072;6.678;2023-08-01T10:10:19;7.70;;;3.80;;
3000;SDS011;1510;51.072;6.678;2023-08-01T10:12:48;7.57;;;3.43;;
3000;SDS011;1510;51.072;6.678;2023-08-01T10:15:16;10.33;;;4.20;;
3000;SDS011;1510;51.072;6.678;2023-08-01T10:17:43;11.57;;;4.13;;
3000;SDS011;1510;51.072;6.678;2023-08-01T10:20:11;12.90;;;4.10;;
3000;SDS011;1510;51.072;6.678;2023-08-01T10:22:40;9.83;;;3.73;;
3000;SDS011;1510;51.072;6.678;2023-08-01T10:25:08;9.83;;;4.67;;
3000;SDS011;1510;51.072;6.678;2023-08-01T10:27:35;10.40;;;4.07;;
3000;SDS011;1510;51.072;6.678;2023-08-01T10:30:04;14.63;;;4.57;;
3000;SDS011;1510;51.072;6.678;2023-08-01T10:32:33;9.10;;;4.60;;
3000;SDS011;1510;51.072;6.678;2023-08-01T10:35:00;10.00;;;3.80;;
3000;SDS011;1510;51.072;6.678;2023-08-01T10:37:38;7.80;;;3.50;;
3000;SDS011;1510;51.072;6.678;2023-08-01T10:40:06;8.93;;;4.30;;
3000;SDS011;1510;51.072;6.678;2023-08-01T10:42:38;12.70;;;4.40;;
3000;SDS011;1510;51.072;6.678;2023-08-01T10:45:07;9.20;;;3.73;;
3000;SDS011;1510;51.072;6.678;2023-08-01T10:47:45;8.07;;;3.50;;
3000;SDS011;1510;51.072;6.678;2023-08-01T10:50:13;9.30;;;3.80;;
3000;SDS011;1510;51.072;6.678;2023-08-01T10:52:41;8.90;;;4.37;;
3000;SDS011;1510;51.072;6.678;2023-08-01T10:55:08;11.07;;;3.90;;
3000;SDS011;1510;51.072;6.678;2023-08-01T10:57:36;8.80;;;3.77;;
3000;SDS011;1510;51.072;6.678;2023-08-01T11:00:05;7.97;;;2.50;;
3000;SDS011;1510;51.072;6.678;2023-08-01T11:02:35;8.10;;;2.87;;
3000;SDS011;1510;51.072;6.678;2023-08-01T11:05:03;7.90;;;3.00;;
3000;SDS011;1510;51.072;6.678;2023-08-01T11:07:31;7.43;;;3.20;;
3000;SDS011;1510;51.072;6.678;2023-08-01T11:10:05;12.60;;;3.47;;
3000;SDS011;1510;51.072;6.678;2023-08-01T11:12:34;7.30;;;2.90;;
3000;SDS011;1510;51.072;6.678;2023-08-01T11:15:02;8.30;;;2.90;;
3000;SDS011;1510;51.072;6.678;2023-08-01T11:17:32;7.63;;;2.27;;
3000;SDS011;1510;51.072;6.678;2023-08-01T11:20:02;7.40;;;3.10;;
3000;SDS011;1510;51.072;6.678;2023-08-01T11:22:30;8.80;;;2.43;;
3000;SDS011;1510;51.072;6.678;2023-08-01T11:24:57;7.83;;;3.03;;
3000;SDS011;1510;51.072;6.678;2023-08-01T11:27:24;10.03;;;3.03;;
3000;SDS011;1510;51.072;6.678;2023-08-01T11:29:52;10.70;;;2.43;;
3000;SDS011;1510;51.072;6.678;2023-08-01T11:32:19;8.80;;;2.80;;
3000;SDS011;1510;51.072;6.678;2023-08-01T11:34:48;9.67;;;2.80;;
3000;SDS011;1510;51.072;6.678;2023-08-01T11:37:18;10.07;;;2.70;;
3000;SDS011;1510;51.072;6.678;2023-08-01T11:39:46;10.00;;;3.37;;
3000;SDS011;1510;51.072;6.678;2023-08-01T11:42:15;7.03;;;2.20;;
3000;SDS011;1510;51.072;6.678;2023-08-01T11:44:42;10.10;;;4.73;;
3000;SDS011;1510;51.072;6.678;2023-08-01T11:47:10;6.17;;;2.00;;
3000;SDS011;1510;51.072;6.678;2023-08-01T11:49:38;5.73;;;1.80;;
3000;SDS011;1510;51.072;6.678;2023-08-01T11:52:07;5.83;;;2.33;;
3000;SDS011;1510;51.072;6.678;2023-08-01T11:54:43;10.83;;;3.13;;
3000;SDS011;1510;51.072;6.678;2023-08-01T11:57:10;7.63;;;2.63;;
3000;SDS011;1510;51.072;6.678;2023-08-01T11:59:45;6.73;;;2.47;;
3000;SDS011;1510;51.072;6.678;2023-08-01T12:02:19;7.63;;;2.60;;
3000;SDS011;1510;51.072;6.678;2023-08-01T12:04:47;8.60;;;2.93;;
3000;SDS011;1510;51.072;6.678;2023-08-01T12:07:16;11.23;;;2.57;;
3000;SDS011;1510;51.072;6.678;2023-08-01T12:09:43;10.80;;;3.13;;
3000;SDS011;1510;51.072;6.678;2023-08-01T12:12:09;7.43;;;2.90;;
3000;SDS011;1510;51.072;6.678;2023-08-01T12:14:40;8.23;;;3.40;;
3000;SDS011;1510;51.072;6.678;2023-08-01T12:17:07;9.87;;;3.30;;
3000;SDS011;1510;51.072;6.678;2023-08-01T12:19:34;6.97;;;2.90;;
3000;SDS011;1510;51.072;6.678;2023-08-01T12:22:00;8.57;;;3.60;;
3000;SDS011;1510;51.072;6.678;2023-08-01T12:24:29;7.30;;;3.23;;
3000;SDS011;1510;51.072;6.678;2023-08-01T12:26:56;8.63;;;3.63;;
3000;SDS011;1510;51.072;6.678;2023-08-01T12:29:23;6.77;;;3.20;;
3000;SDS011;1510;51.072;6.678;2023-08-01T12:31:50;7.63;;;3.63;;
3000;SDS011;1510;51.072;6.678;2023-08-01T12:34:16;7.60;;;3.40;;
3000;SDS011;1510;51.072;6.678;2023-08-01T12:36:43;7.73;;;3.63;;
3000;SDS011;1510;51.072;6.678;2023-08-01T12:39:10;6.60;;;3.63;;
3000;SDS011;1510;51.072;6.678;2023-08-01T12:41:39;13.27;;;6.80;;
3000;SDS011;1510;51.072;6.678;2023-08-01T12:44:06;13.10;;;7.10;;
3000;SDS011;1510;51.072;6.678;2023-08-01T12:46:32;15.50;;;12.33;;
3000;SDS011;1510;51.072;6.678;2023-08-01T12:49:00;42.83;;;40.57;;
3000;SDS011;1510;51.072;6.678;2023-08-01T12:51:27;228.87;;;220.90;;
3000;SDS011;1510;51.072;6.678;2023-08-01T12:53:54;492.00;;;476.17;;
3000;SDS011;1510;51.072;6.678;2023-08-01T12:56:21;750.60;;;719.73;;
3000;SDS011;1510;51.072;6.678;2023-08-01T12:58:49;852.80;;;804.30;;
3000;SDS011;1510;51.072;6.678;2023-08-01T13:01:16;843.13;;;793.67;;
3000;SDS011;1510;51.072;6.678;2023-08-01T13:03:42;829.10;;;783.40;;
3000;SDS011;1510;51.072;6.678;2023-08-01T13:06:10;683.43;;;658.37;;
3000;SDS011;1510;51.072;6.678;2023-08-01T13:08:38;741.57;;;710.30;;
3000;SDS011;1510;51.072;6.678;2023-08-01T13:11:11;652.40;;;629.53;;
3000;SDS011;1510;51.072;6.678;2023-08-01T13:13:39;627.33;;;605.73;;
3000;SDS011;1510;51.072;6.678;2023-08-01T13:16:08;565.37;;;546.87;;
3000;SDS011;1510;51.072;6.678;2023-08-01T13:18:35;238.30;;;229.93;;
3000;SDS011;1510;51.072;6.678;2023-08-01T13:21:08;13.83;;;12.67;;
3000;SDS011;1510;51.072;6.678;2023-08-01T13:23:35;10.63;;;9.60;;
3000;SDS011;1510;51.072;6.678;2023-08-01T13:26:02;23.40;;;21.60;;
3000;SDS011;1510;51.072;6.678;2023-08-01T13:28:28;295.73;;;286.40;;
3000;SDS011;1510;51.072;6.678;2023-08-01T13:30:55;723.47;;;689.10;;
3000;SDS011;1510;51.072;6.678;2023-08-01T13:33:23;255.50;;;247.03;;
3000;SDS011;1510;51.072;6.678;2023-08-01T13:35:51;15.47;;;9.80;;
3000;SDS011;1510;51.072;6.678;2023-08-01T13:38:18;12.27;;;6.30;;
3000;SDS011;1510;51.072;6.678;2023-08-01T13:40:45;9.33;;;5.83;;
3000;SDS011;1510;51.072;6.678;2023-08-01T13:43:12;11.13;;;5.80;;
3000;SDS011;1510;51.072;6.678;2023-08-01T13:45:39;9.67;;;5.80;;
3000;SDS011;1510;51.072;6.678;2023-08-01T13:48:05;11.37;;;5.40;;
3000;SDS011;1510;51.072;6.678;2023-08-01T13:50:34;10.37;;;4.93;;
3000;SDS011;1510;51.072;6.678;2023-08-01T13:53:01;10.63;;;5.30;;
3000;SDS011;1510;51.072;6.678;2023-08-01T13:55:28;12.00;;;5.30;;
3000;SDS011;1510;51.072;6.678;2023-08-01T13:57:55;11.33;;;5.07;;
3000;SDS011;1510;51.072;6.678;2023-08-01T14:00:22;10.27;;;5.77;;
3000;SDS011;1510;51.072;6.678;2023-08-01T14:02:49;10.30;;;4.57;;
3000;SDS011;1510;51.072;6.678;2023-08-01T14:05:16;13.63;;;5.10;;
3000;SDS011;1510;51.072;6.678;2023-08-01T14:07:45;8.30;;;4.40;;
3000;SDS011;1510;51.072;6.678;2023-08-01T14:10:12;11.97;;;5.10;;
3000;SDS011;1510;51.072;6.678;2023-08-01T14:12:39;8.37;;;4.03;;
3000;SDS011;1510;51.072;6.678;2023-08-01T14:15:07;11.00;;;4.47;;
3000;SDS011;1510;51.072;6.678;2023-08-01T14:17:34;9.70;;;4.97;;
3000;SDS011;1510;51.072;6.678;2023-08-01T14:20:01;7.70;;;4.10;;
3000;SDS011;1510;51.072;6.678;2023-08-01T14:22:30;10.50;;;4.67;;
3000;SDS011;1510;51.072;6.678;2023-08-01T14:24:58;10.57;;;4.00;;
3000;SDS011;1510;51.072;6.678;2023-08-01T14:27:25;9.47;;;3.67;;
3000;SDS011;1510;51.072;6.678;2023-08-01T14:29:52;10.03;;;5.00;;
3000;SDS011;1510;51.072;6.678;2023-08-01T14:32:19;12.43;;;4.03;;
3000;SDS011;1510;51.072;6.678;2023-08-01T14:34:46;8.20;;;3.70;;
3000;SDS011;1510;51.072;6.678;2023-08-01T14:37:13;7.90;;;3.80;;
3000;SDS011;1510;51.072;6.678;2023-08-01T14:39:40;9.30;;;3.50;;
3000;SDS011;1510;51.072;6.678;2023-08-01T14:42:08;7.03;;;3.37;;
3000;SDS011;1510;51.072;6.678;2023-08-01T14:44:35;8.07;;;3.70;;